sensor_id;sensor_type;location;lat;lon;timestamp;temperature;humidity
57242;DHT22;43095;53.302;5.786;2022-09-03T00:00:27;16.50;98.20
57242;DHT22;43095;53.302;5.786;2022-09-03T00:03:33;16.40;98.30
57242;DHT22;43095;53.302;5.786;2022-09-03T00:06:30;16.30;98.50
57242;DHT22;43095;53.302;5.786;2022-09-03T00:09:29;16.30;98.70
57242;DHT22;43095;53.302;5.786;2022-09-03T00:12:28;16.20;99.00
57242;DHT22;43095;53.302;5.786;2022-09-03T00:15:19;16.10;99.00
57242;DHT22;43095;53.302;5.786;2022-09-03T00:21:10;16.00;99.40
57242;DHT22;43095;53.302;5.786;2022-09-03T00:23:59;15.90;99.70
57242;DHT22;43095;53.302;5.786;2022-09-03T00:26:52;15.80;99.90
57242;DHT22;43095;53.302;5.786;2022-09-03T00:29:48;15.80;99.90
57242;DHT22;43095;53.302;5.786;2022-09-03T00:32:42;15.70;99.90
57242;DHT22;43095;53.302;5.786;2022-09-03T00:35:42;15.70;99.90
57242;DHT22;43095;53.302;5.786;2022-09-03T00:38:29;15.70;99.90
57242;DHT22;43095;53.302;5.786;2022-09-03T00:47:41;15.70;99.90
57242;DHT22;43095;53.302;5.786;2022-09-03T00:51:20;15.70;99.90
57242;DHT22;43095;53.302;5.786;2022-09-03T01:00:20;15.60;99.90
57242;DHT22;43095;53.302;5.786;2022-09-03T01:03:09;15.50;99.90
57242;DHT22;43095;53.302;5.786;2022-09-03T01:06:16;15.50;99.90
57242;DHT22;43095;53.302;5.786;2022-09-03T01:18:46;15.50;99.90
57242;DHT22;43095;53.302;5.786;2022-09-03T01:21:59;15.60;99.90
57242;DHT22;43095;53.302;5.786;2022-09-03T01:25:52;15.50;99.90
57242;DHT22;43095;53.302;5.786;2022-09-03T01:31:17;15.50;99.90
57242;DHT22;43095;53.302;5.786;2022-09-03T01:34:18;15.40;99.90
57242;DHT22;43095;53.302;5.786;2022-09-03T01:46:40;15.30;99.90
57242;DHT22;43095;53.302;5.786;2022-09-03T01:49:37;15.30;99.90
57242;DHT22;43095;53.302;5.786;2022-09-03T01:58:40;15.30;99.90
57242;DHT22;43095;53.302;5.786;2022-09-03T02:02:14;15.20;99.90
57242;DHT22;43095;53.302;5.786;2022-09-03T02:04:40;15.20;99.90
57242;DHT22;43095;53.302;5.786;2022-09-03T02:07:33;15.20;99.90
57242;DHT22;43095;53.302;5.786;2022-09-03T02:10:23;15.20;99.90
57242;DHT22;43095;53.302;5.786;2022-09-03T02:16:17;15.10;99.90
57242;DHT22;43095;53.302;5.786;2022-09-03T02:19:11;15.10;99.90
57242;DHT22;43095;53.302;5.786;2022-09-03T02:22:00;15.10;99.90
57242;DHT22;43095;53.302;5.786;2022-09-03T02:24:46;15.10;99.90
57242;DHT22;43095;53.302;5.786;2022-09-03T02:27:32;15.00;99.90
57242;DHT22;43095;53.302;5.786;2022-09-03T02:30:20;15.00;99.90
57242;DHT22;43095;53.302;5.786;2022-09-03T02:33:07;14.90;99.90
57242;DHT22;43095;53.302;5.786;2022-09-03T02:35:54;14.90;99.90
57242;DHT22;43095;53.302;5.786;2022-09-03T02:38:41;14.90;99.90
57242;DHT22;43095;53.302;5.786;2022-09-03T02:41:27;14.90;99.90
57242;DHT22;43095;53.302;5.786;2022-09-03T02:44:34;14.80;99.90
57242;DHT22;43095;53.302;5.786;2022-09-03T02:47:22;14.80;99.90
57242;DHT22;43095;53.302;5.786;2022-09-03T02:50:09;14.70;99.90
57242;DHT22;43095;53.302;5.786;2022-09-03T02:52:55;14.70;99.90
57242;DHT22;43095;53.302;5.786;2022-09-03T02:55:41;14.70;99.90
57242;DHT22;43095;53.302;5.786;2022-09-03T02:58:27;14.70;99.90
57242;DHT22;43095;53.302;5.786;2022-09-03T03:01:13;14.60;99.90
57242;DHT22;43095;53.302;5.786;2022-09-03T03:04:08;14.60;99.90
57242;DHT22;43095;53.302;5.786;2022-09-03T03:06:54;14.60;99.90
57242;DHT22;43095;53.302;5.786;2022-09-03T03:09:40;14.60;99.90
57242;DHT22;43095;53.302;5.786;2022-09-03T03:12:26;14.60;99.90
57242;DHT22;43095;53.302;5.786;2022-09-03T03:15:11;14.60;99.90
57242;DHT22;43095;53.302;5.786;2022-09-03T03:17:57;14.60;99.90
57242;DHT22;43095;53.302;5.786;2022-09-03T03:20:43;14.60;99.90
57242;DHT22;43095;53.302;5.786;2022-09-03T03:23:31;14.60;99.90
57242;DHT22;43095;53.302;5.786;2022-09-03T03:26:18;14.60;99.90
57242;DHT22;43095;53.302;5.786;2022-09-03T03:29:04;14.70;99.90
57242;DHT22;43095;53.302;5.786;2022-09-03T03:31:51;14.60;99.90
57242;DHT22;43095;53.302;5.786;2022-09-03T03:34:38;14.60;99.90
57242;DHT22;43095;53.302;5.786;2022-09-03T03:37:24;14.70;99.90
57242;DHT22;43095;53.302;5.786;2022-09-03T03:40:10;14.70;99.90
57242;DHT22;43095;53.302;5.786;2022-09-03T03:42:57;14.70;99.90
57242;DHT22;43095;53.302;5.786;2022-09-03T03:45:43;14.70;99.90
57242;DHT22;43095;53.302;5.786;2022-09-03T03:48:28;14.70;99.90
57242;DHT22;43095;53.302;5.786;2022-09-03T03:51:14;14.70;99.90
57242;DHT22;43095;53.302;5.786;2022-09-03T03:54:00;14.70;99.90
57242;DHT22;43095;53.302;5.786;2022-09-03T03:56:49;14.70;99.90
57242;DHT22;43095;53.302;5.786;2022-09-03T03:59:40;14.70;99.90
57242;DHT22;43095;53.302;5.786;2022-09-03T04:02:26;14.70;99.90
57242;DHT22;43095;53.302;5.786;2022-09-03T04:05:11;14.70;99.90
57242;DHT22;43095;53.302;5.786;2022-09-03T04:08:00;14.70;99.90
57242;DHT22;43095;53.302;5.786;2022-09-03T04:10:47;14.70;99.90
57242;DHT22;43095;53.302;5.786;2022-09-03T04:13:38;14.60;99.90
57242;DHT22;43095;53.302;5.786;2022-09-03T04:16:26;14.70;99.90
57242;DHT22;43095;53.302;5.786;2022-09-03T04:19:12;14.60;99.90
57242;DHT22;43095;53.302;5.786;2022-09-03T04:21:57;14.60;99.90
57242;DHT22;43095;53.302;5.786;2022-09-03T04:24:43;14.60;99.90
57242;DHT22;43095;53.302;5.786;2022-09-03T04:27:29;14.70;99.90
57242;DHT22;43095;53.302;5.786;2022-09-03T04:30:15;14.70;99.90
57242;DHT22;43095;53.302;5.786;2022-09-03T04:33:01;14.70;99.90
57242;DHT22;43095;53.302;5.786;2022-09-03T04:35:47;14.70;99.90
57242;DHT22;43095;53.302;5.786;2022-09-03T04:38:33;14.70;99.90
57242;DHT22;43095;53.302;5.786;2022-09-03T04:41:22;14.70;99.90
57242;DHT22;43095;53.302;5.786;2022-09-03T04:44:09;14.70;99.90
57242;DHT22;43095;53.302;5.786;2022-09-03T04:46:54;14.80;99.90
57242;DHT22;43095;53.302;5.786;2022-09-03T04:49:40;14.70;99.90
57242;DHT22;43095;53.302;5.786;2022-09-03T04:52:28;14.70;99.90
57242;DHT22;43095;53.302;5.786;2022-09-03T04:55:16;14.70;99.90
57242;DHT22;43095;53.302;5.786;2022-09-03T04:58:04;14.70;99.90
57242;DHT22;43095;53.302;5.786;2022-09-03T05:00:52;14.70;99.90
57242;DHT22;43095;53.302;5.786;2022-09-03T05:03:38;14.80;99.90
57242;DHT22;43095;53.302;5.786;2022-09-03T05:06:25;14.80;99.90
57242;DHT22;43095;53.302;5.786;2022-09-03T05:09:11;14.70;99.90
57242;DHT22;43095;53.302;5.786;2022-09-03T05:11:57;14.80;99.90
57242;DHT22;43095;53.302;5.786;2022-09-03T05:14:42;14.80;99.90
57242;DHT22;43095;53.302;5.786;2022-09-03T05:17:28;14.80;99.90
57242;DHT22;43095;53.302;5.786;2022-09-03T05:20:20;14.80;99.90
57242;DHT22;43095;53.302;5.786;2022-09-03T05:23:06;14.80;99.90
57242;DHT22;43095;53.302;5.786;2022-09-03T05:25:57;14.80;99.90
57242;DHT22;43095;53.302;5.786;2022-09-03T05:28:44;14.80;99.90
57242;DHT22;43095;53.302;5.786;2022-09-03T05:31:30;14.80;99.90
57242;DHT22;43095;53.302;5.786;2022-09-03T05:34:16;14.80;99.90
57242;DHT22;43095;53.302;5.786;2022-09-03T05:37:03;14.80;99.90
57242;DHT22;43095;53.302;5.786;2022-09-03T05:39:49;14.80;99.90
57242;DHT22;43095;53.302;5.786;2022-09-03T05:42:34;14.80;99.90
57242;DHT22;43095;53.302;5.786;2022-09-03T05:45:22;14.80;99.90
57242;DHT22;43095;53.302;5.786;2022-09-03T05:48:09;14.80;99.90
57242;DHT22;43095;53.302;5.786;2022-09-03T05:51:07;14.80;99.90
57242;DHT22;43095;53.302;5.786;2022-09-03T05:53:53;14.80;99.90
57242;DHT22;43095;53.302;5.786;2022-09-03T05:56:40;14.80;99.90
57242;DHT22;43095;53.302;5.786;2022-09-03T05:59:26;14.90;99.90
57242;DHT22;43095;53.302;5.786;2022-09-03T06:02:12;14.90;99.90
57242;DHT22;43095;53.302;5.786;2022-09-03T06:04:58;14.90;99.90
57242;DHT22;43095;53.302;5.786;2022-09-03T06:07:45;14.90;99.90
57242;DHT22;43095;53.302;5.786;2022-09-03T06:10:34;15.00;99.90
57242;DHT22;43095;53.302;5.786;2022-09-03T06:13:25;15.00;99.90
57242;DHT22;43095;53.302;5.786;2022-09-03T06:16:11;15.10;99.90
57242;DHT22;43095;53.302;5.786;2022-09-03T06:18:57;15.20;99.90
57242;DHT22;43095;53.302;5.786;2022-09-03T06:21:44;15.20;99.90
57242;DHT22;43095;53.302;5.786;2022-09-03T06:24:30;15.20;99.90
57242;DHT22;43095;53.302;5.786;2022-09-03T06:27:17;15.20;99.90
57242;DHT22;43095;53.302;5.786;2022-09-03T06:30:05;15.30;99.90
57242;DHT22;43095;53.302;5.786;2022-09-03T06:32:51;15.30;99.90
57242;DHT22;43095;53.302;5.786;2022-09-03T06:35:38;15.30;99.90
57242;DHT22;43095;53.302;5.786;2022-09-03T06:38:30;15.30;99.90
57242;DHT22;43095;53.302;5.786;2022-09-03T06:41:27;15.30;99.90
57242;DHT22;43095;53.302;5.786;2022-09-03T06:44:14;15.40;99.90
57242;DHT22;43095;53.302;5.786;2022-09-03T06:47:00;15.50;99.90
57242;DHT22;43095;53.302;5.786;2022-09-03T06:49:46;15.50;99.90
57242;DHT22;43095;53.302;5.786;2022-09-03T06:52:32;15.60;99.90
57242;DHT22;43095;53.302;5.786;2022-09-03T06:55:18;15.70;99.90
57242;DHT22;43095;53.302;5.786;2022-09-03T06:58:03;15.80;99.90
57242;DHT22;43095;53.302;5.786;2022-09-03T07:00:49;15.90;99.90
57242;DHT22;43095;53.302;5.786;2022-09-03T07:03:38;16.00;99.90
57242;DHT22;43095;53.302;5.786;2022-09-03T07:06:26;16.20;99.90
57242;DHT22;43095;53.302;5.786;2022-09-03T07:09:13;16.20;99.90
57242;DHT22;43095;53.302;5.786;2022-09-03T07:12:00;16.30;99.90
57242;DHT22;43095;53.302;5.786;2022-09-03T07:14:46;16.50;99.90
57242;DHT22;43095;53.302;5.786;2022-09-03T07:17:35;16.50;99.90
57242;DHT22;43095;53.302;5.786;2022-09-03T07:20:21;16.70;99.90
57242;DHT22;43095;53.302;5.786;2022-09-03T07:23:07;16.80;99.90
57242;DHT22;43095;53.302;5.786;2022-09-03T07:25:57;16.80;99.90
57242;DHT22;43095;53.302;5.786;2022-09-03T07:28:43;17.00;99.90
57242;DHT22;43095;53.302;5.786;2022-09-03T07:31:36;17.00;99.90
57242;DHT22;43095;53.302;5.786;2022-09-03T07:34:22;17.10;99.90
57242;DHT22;43095;53.302;5.786;2022-09-03T07:37:11;17.20;99.90
57242;DHT22;43095;53.302;5.786;2022-09-03T07:40:01;17.20;99.50
57242;DHT22;43095;53.302;5.786;2022-09-03T07:42:47;17.30;99.70
57242;DHT22;43095;53.302;5.786;2022-09-03T07:45:39;17.40;99.00
57242;DHT22;43095;53.302;5.786;2022-09-03T07:48:25;17.50;99.10
57242;DHT22;43095;53.302;5.786;2022-09-03T07:51:11;17.50;98.30
57242;DHT22;43095;53.302;5.786;2022-09-03T07:53:59;17.50;98.20
57242;DHT22;43095;53.302;5.786;2022-09-03T07:56:45;17.60;97.50
57242;DHT22;43095;53.302;5.786;2022-09-03T07:59:31;17.70;97.60
57242;DHT22;43095;53.302;5.786;2022-09-03T08:02:17;17.70;96.90
57242;DHT22;43095;53.302;5.786;2022-09-03T08:05:03;17.80;96.00
57242;DHT22;43095;53.302;5.786;2022-09-03T08:07:49;17.80;96.10
57242;DHT22;43095;53.302;5.786;2022-09-03T08:10:36;17.90;96.40
57242;DHT22;43095;53.302;5.786;2022-09-03T08:13:23;18.00;95.90
57242;DHT22;43095;53.302;5.786;2022-09-03T08:16:12;18.10;95.10
57242;DHT22;43095;53.302;5.786;2022-09-03T08:18:58;18.20;95.50
57242;DHT22;43095;53.302;5.786;2022-09-03T08:21:44;18.30;93.60
57242;DHT22;43095;53.302;5.786;2022-09-03T08:24:30;18.40;93.60
57242;DHT22;43095;53.302;5.786;2022-09-03T08:27:18;18.40;93.80
57242;DHT22;43095;53.302;5.786;2022-09-03T08:30:11;18.60;92.70
57242;DHT22;43095;53.302;5.786;2022-09-03T08:33:00;18.60;92.20
57242;DHT22;43095;53.302;5.786;2022-09-03T08:35:52;18.70;90.80
57242;DHT22;43095;53.302;5.786;2022-09-03T08:38:40;18.80;90.40
57242;DHT22;43095;53.302;5.786;2022-09-03T08:44:46;19.00;89.10
57242;DHT22;43095;53.302;5.786;2022-09-03T08:47:40;19.00;89.50
57242;DHT22;43095;53.302;5.786;2022-09-03T08:50:35;19.20;84.40
57242;DHT22;43095;53.302;5.786;2022-09-03T08:56:29;19.30;85.60
57242;DHT22;43095;53.302;5.786;2022-09-03T08:59:15;19.50;87.60
57242;DHT22;43095;53.302;5.786;2022-09-03T09:05:06;19.60;82.80
57242;DHT22;43095;53.302;5.786;2022-09-03T09:08:20;19.70;82.00
57242;DHT22;43095;53.302;5.786;2022-09-03T09:11:35;19.80;83.60
57242;DHT22;43095;53.302;5.786;2022-09-03T09:15:25;20.00;80.00
57242;DHT22;43095;53.302;5.786;2022-09-03T09:18:04;20.10;80.80
57242;DHT22;43095;53.302;5.786;2022-09-03T09:21:10;20.20;76.50
57242;DHT22;43095;53.302;5.786;2022-09-03T09:24:16;20.40;77.90
57242;DHT22;43095;53.302;5.786;2022-09-03T09:27:15;20.50;75.60
57242;DHT22;43095;53.302;5.786;2022-09-03T09:30:04;20.70;76.70
57242;DHT22;43095;53.302;5.786;2022-09-03T09:32:50;20.70;73.80
57242;DHT22;43095;53.302;5.786;2022-09-03T09:35:36;20.90;71.20
57242;DHT22;43095;53.302;5.786;2022-09-03T09:38:34;20.90;70.10
57242;DHT22;43095;53.302;5.786;2022-09-03T09:41:23;21.00;70.80
57242;DHT22;43095;53.302;5.786;2022-09-03T09:44:21;21.10;69.50
57242;DHT22;43095;53.302;5.786;2022-09-03T09:47:35;21.20;67.20
57242;DHT22;43095;53.302;5.786;2022-09-03T09:50:25;21.30;67.20
57242;DHT22;43095;53.302;5.786;2022-09-03T09:53:11;21.30;67.40
57242;DHT22;43095;53.302;5.786;2022-09-03T09:56:00;21.30;68.10
57242;DHT22;43095;53.302;5.786;2022-09-03T09:58:49;21.60;69.30
57242;DHT22;43095;53.302;5.786;2022-09-03T10:01:40;21.70;67.00
57242;DHT22;43095;53.302;5.786;2022-09-03T10:04:29;21.70;65.60
57242;DHT22;43095;53.302;5.786;2022-09-03T10:13:05;22.30;63.30
57242;DHT22;43095;53.302;5.786;2022-09-03T10:16:02;22.50;62.10
57242;DHT22;43095;53.302;5.786;2022-09-03T10:22:04;22.80;61.00
57242;DHT22;43095;53.302;5.786;2022-09-03T10:25:02;22.90;60.10
57242;DHT22;43095;53.302;5.786;2022-09-03T10:27:50;22.80;60.00
57242;DHT22;43095;53.302;5.786;2022-09-03T10:31:11;22.90;59.80
57242;DHT22;43095;53.302;5.786;2022-09-03T10:34:17;23.20;58.40
57242;DHT22;43095;53.302;5.786;2022-09-03T10:43:39;23.60;56.40
57242;DHT22;43095;53.302;5.786;2022-09-03T10:50:14;24.00;54.30
57242;DHT22;43095;53.302;5.786;2022-09-03T10:59:21;24.30;53.90
57242;DHT22;43095;53.302;5.786;2022-09-03T11:11:35;24.40;51.50
57242;DHT22;43095;53.302;5.786;2022-09-03T11:14:44;24.60;51.40
57242;DHT22;43095;53.302;5.786;2022-09-03T11:17:58;24.50;50.70
57242;DHT22;43095;53.302;5.786;2022-09-03T11:20:42;25.00;50.90
57242;DHT22;43095;53.302;5.786;2022-09-03T11:23:31;25.30;50.20
57242;DHT22;43095;53.302;5.786;2022-09-03T11:26:19;25.70;48.80
57242;DHT22;43095;53.302;5.786;2022-09-03T11:29:32;25.80;49.20
57242;DHT22;43095;53.302;5.786;2022-09-03T11:32:55;25.80;49.00
57242;DHT22;43095;53.302;5.786;2022-09-03T11:35:44;25.90;46.60
57242;DHT22;43095;53.302;5.786;2022-09-03T11:38:29;26.10;47.70
57242;DHT22;43095;53.302;5.786;2022-09-03T11:41:27;26.30;46.70
57242;DHT22;43095;53.302;5.786;2022-09-03T11:44:18;26.70;46.00
57242;DHT22;43095;53.302;5.786;2022-09-03T11:47:21;27.10;45.80
57242;DHT22;43095;53.302;5.786;2022-09-03T11:50:24;26.80;44.90
57242;DHT22;43095;53.302;5.786;2022-09-03T11:53:26;26.60;45.40
57242;DHT22;43095;53.302;5.786;2022-09-03T11:56:18;26.50;45.00
57242;DHT22;43095;53.302;5.786;2022-09-03T12:01:55;26.50;45.40
57242;DHT22;43095;53.302;5.786;2022-09-03T12:14:30;27.30;42.80
57242;DHT22;43095;53.302;5.786;2022-09-03T12:17:46;27.60;41.10
57242;DHT22;43095;53.302;5.786;2022-09-03T12:23:43;27.60;41.40
57242;DHT22;43095;53.302;5.786;2022-09-03T12:26:29;27.80;41.00
57242;DHT22;43095;53.302;5.786;2022-09-03T12:29:26;28.00;41.20
57242;DHT22;43095;53.302;5.786;2022-09-03T12:32:15;28.00;39.90
57242;DHT22;43095;53.302;5.786;2022-09-03T12:35:14;27.90;40.00
57242;DHT22;43095;53.302;5.786;2022-09-03T12:38:25;27.80;40.10
57242;DHT22;43095;53.302;5.786;2022-09-03T12:41:26;28.00;40.50
57242;DHT22;43095;53.302;5.786;2022-09-03T12:44:12;27.80;39.20
57242;DHT22;43095;53.302;5.786;2022-09-03T12:47:22;28.00;39.80
57242;DHT22;43095;53.302;5.786;2022-09-03T12:50:24;28.10;37.80
57242;DHT22;43095;53.302;5.786;2022-09-03T12:53:13;28.00;38.10
57242;DHT22;43095;53.302;5.786;2022-09-03T12:56:01;28.80;38.10
57242;DHT22;43095;53.302;5.786;2022-09-03T13:01:50;27.80;38.10
57242;DHT22;43095;53.302;5.786;2022-09-03T13:04:38;27.50;37.50
57242;DHT22;43095;53.302;5.786;2022-09-03T13:07:33;27.80;37.40
57242;DHT22;43095;53.302;5.786;2022-09-03T13:10:28;28.10;38.80
57242;DHT22;43095;53.302;5.786;2022-09-03T13:13:28;28.00;38.00
57242;DHT22;43095;53.302;5.786;2022-09-03T13:19:41;28.40;37.40
57242;DHT22;43095;53.302;5.786;2022-09-03T13:22:41;28.90;37.00
57242;DHT22;43095;53.302;5.786;2022-09-03T13:26:03;29.60;36.60
57242;DHT22;43095;53.302;5.786;2022-09-03T13:29:14;29.60;34.50
57242;DHT22;43095;53.302;5.786;2022-09-03T13:35:27;29.90;35.50
57242;DHT22;43095;53.302;5.786;2022-09-03T13:38:50;29.30;34.90
57242;DHT22;43095;53.302;5.786;2022-09-03T13:41:50;29.80;35.00
57242;DHT22;43095;53.302;5.786;2022-09-03T13:44:46;29.50;34.70
57242;DHT22;43095;53.302;5.786;2022-09-03T13:47:55;29.80;35.40
57242;DHT22;43095;53.302;5.786;2022-09-03T13:51:10;29.70;35.30
57242;DHT22;43095;53.302;5.786;2022-09-03T14:00:04;29.30;35.30
57242;DHT22;43095;53.302;5.786;2022-09-03T14:09:32;29.40;34.90
57242;DHT22;43095;53.302;5.786;2022-09-03T14:12:42;29.00;35.60
57242;DHT22;43095;53.302;5.786;2022-09-03T14:15:49;28.80;35.10
57242;DHT22;43095;53.302;5.786;2022-09-03T14:19:04;29.40;34.90
57242;DHT22;43095;53.302;5.786;2022-09-03T14:22:00;29.60;35.50
57242;DHT22;43095;53.302;5.786;2022-09-03T14:24:58;28.80;35.10
57242;DHT22;43095;53.302;5.786;2022-09-03T14:27:45;29.40;35.90
57242;DHT22;43095;53.302;5.786;2022-09-03T14:37:06;29.50;34.60
57242;DHT22;43095;53.302;5.786;2022-09-03T14:39:55;29.00;34.60
57242;DHT22;43095;53.302;5.786;2022-09-03T14:53:08;29.50;35.00
57242;DHT22;43095;53.302;5.786;2022-09-03T14:56:21;29.10;34.70
57242;DHT22;43095;53.302;5.786;2022-09-03T14:59:32;28.40;34.90
57242;DHT22;43095;53.302;5.786;2022-09-03T15:08:50;29.50;35.00
57242;DHT22;43095;53.302;5.786;2022-09-03T15:12:09;29.10;34.60
57242;DHT22;43095;53.302;5.786;2022-09-03T15:15:18;28.70;35.40
57242;DHT22;43095;53.302;5.786;2022-09-03T15:18:37;28.70;34.80
57242;DHT22;43095;53.302;5.786;2022-09-03T15:33:49;29.50;35.10
57242;DHT22;43095;53.302;5.786;2022-09-03T15:36:40;29.40;35.10
57242;DHT22;43095;53.302;5.786;2022-09-03T15:39:34;29.50;35.20
57242;DHT22;43095;53.302;5.786;2022-09-03T15:42:25;29.30;34.60
57242;DHT22;43095;53.302;5.786;2022-09-03T15:45:27;29.30;35.50
57242;DHT22;43095;53.302;5.786;2022-09-03T15:51:09;28.90;36.00
57242;DHT22;43095;53.302;5.786;2022-09-03T15:54:16;28.50;36.00
57242;DHT22;43095;53.302;5.786;2022-09-03T15:57:15;28.40;36.40
57242;DHT22;43095;53.302;5.786;2022-09-03T16:00:20;28.40;36.40
57242;DHT22;43095;53.302;5.786;2022-09-03T16:03:09;28.30;36.40
57242;DHT22;43095;53.302;5.786;2022-09-03T16:06:06;28.20;36.50
57242;DHT22;43095;53.302;5.786;2022-09-03T16:09:00;28.10;36.30
57242;DHT22;43095;53.302;5.786;2022-09-03T16:12:07;28.20;36.80
57242;DHT22;43095;53.302;5.786;2022-09-03T16:15:56;28.00;37.00
57242;DHT22;43095;53.302;5.786;2022-09-03T16:18:36;28.00;37.70
57242;DHT22;43095;53.302;5.786;2022-09-03T16:24:25;28.00;37.60
57242;DHT22;43095;53.302;5.786;2022-09-03T16:36:35;27.30;41.20
57242;DHT22;43095;53.302;5.786;2022-09-03T16:42:47;26.60;42.40
57242;DHT22;43095;53.302;5.786;2022-09-03T16:45:49;26.40;42.40
57242;DHT22;43095;53.302;5.786;2022-09-03T16:57:53;25.90;44.20
57242;DHT22;43095;53.302;5.786;2022-09-03T17:10:16;25.30;45.50
57242;DHT22;43095;53.302;5.786;2022-09-03T17:32:26;23.10;50.60
57242;DHT22;43095;53.302;5.786;2022-09-03T17:35:20;22.90;51.70
57242;DHT22;43095;53.302;5.786;2022-09-03T17:42:05;22.50;52.20
57242;DHT22;43095;53.302;5.786;2022-09-03T17:45:25;22.50;53.70
57242;DHT22;43095;53.302;5.786;2022-09-03T17:52:19;22.20;56.00
57242;DHT22;43095;53.302;5.786;2022-09-03T17:55:29;22.00;58.60
57242;DHT22;43095;53.302;5.786;2022-09-03T18:01:20;21.60;65.60
57242;DHT22;43095;53.302;5.786;2022-09-03T18:13:20;21.00;85.30
57242;DHT22;43095;53.302;5.786;2022-09-03T18:16:27;21.00;88.10
57242;DHT22;43095;53.302;5.786;2022-09-03T18:19:38;20.80;91.60
57242;DHT22;43095;53.302;5.786;2022-09-03T18:26:35;20.60;93.00
57242;DHT22;43095;53.302;5.786;2022-09-03T18:32:59;20.50;94.70
57242;DHT22;43095;53.302;5.786;2022-09-03T18:36:04;20.40;95.10
57242;DHT22;43095;53.302;5.786;2022-09-03T18:39:25;20.30;96.70
57242;DHT22;43095;53.302;5.786;2022-09-03T18:46:53;20.10;99.90
57242;DHT22;43095;53.302;5.786;2022-09-03T18:50:45;20.00;99.90
57242;DHT22;43095;53.302;5.786;2022-09-03T18:54:26;19.90;99.90
57242;DHT22;43095;53.302;5.786;2022-09-03T19:01:26;19.60;99.90
57242;DHT22;43095;53.302;5.786;2022-09-03T19:08:36;19.50;99.90
57242;DHT22;43095;53.302;5.786;2022-09-03T19:15:24;19.30;99.90
57242;DHT22;43095;53.302;5.786;2022-09-03T19:21:38;19.20;99.90
57242;DHT22;43095;53.302;5.786;2022-09-03T19:24:46;19.10;99.90
57242;DHT22;43095;53.302;5.786;2022-09-03T19:38:02;18.90;99.90
57242;DHT22;43095;53.302;5.786;2022-09-03T19:41:24;18.80;99.90
57242;DHT22;43095;53.302;5.786;2022-09-03T19:45:02;18.80;99.90
57242;DHT22;43095;53.302;5.786;2022-09-03T19:55:24;18.60;99.90
57242;DHT22;43095;53.302;5.786;2022-09-03T19:58:31;18.50;99.90
57242;DHT22;43095;53.302;5.786;2022-09-03T20:01:37;18.50;99.90
57242;DHT22;43095;53.302;5.786;2022-09-03T20:04:58;18.40;99.90
57242;DHT22;43095;53.302;5.786;2022-09-03T20:08:03;18.30;99.90
57242;DHT22;43095;53.302;5.786;2022-09-03T20:11:18;18.10;99.90
57242;DHT22;43095;53.302;5.786;2022-09-03T20:14:11;18.00;99.90
57242;DHT22;43095;53.302;5.786;2022-09-03T20:20:02;17.80;99.90
57242;DHT22;43095;53.302;5.786;2022-09-03T20:23:07;17.70;99.90
57242;DHT22;43095;53.302;5.786;2022-09-03T20:26:03;17.50;99.90
57242;DHT22;43095;53.302;5.786;2022-09-03T20:29:01;17.40;99.90
57242;DHT22;43095;53.302;5.786;2022-09-03T20:48:07;17.10;99.90
57242;DHT22;43095;53.302;5.786;2022-09-03T20:50:51;17.10;99.90
57242;DHT22;43095;53.302;5.786;2022-09-03T20:57:06;17.10;99.90
57242;DHT22;43095;53.302;5.786;2022-09-03T21:00:07;17.10;99.90
57242;DHT22;43095;53.302;5.786;2022-09-03T21:03:14;17.10;99.90
57242;DHT22;43095;53.302;5.786;2022-09-03T21:06:22;17.10;99.90
57242;DHT22;43095;53.302;5.786;2022-09-03T21:28:11;17.00;99.90
57242;DHT22;43095;53.302;5.786;2022-09-03T21:31:00;17.00;99.90
57242;DHT22;43095;53.302;5.786;2022-09-03T21:33:47;16.90;99.90
57242;DHT22;43095;53.302;5.786;2022-09-03T21:36:36;16.90;99.90
57242;DHT22;43095;53.302;5.786;2022-09-03T21:39:34;16.90;99.90
57242;DHT22;43095;53.302;5.786;2022-09-03T21:42:50;16.90;99.90
57242;DHT22;43095;53.302;5.786;2022-09-03T21:46:05;16.90;99.90
57242;DHT22;43095;53.302;5.786;2022-09-03T21:49:01;16.90;99.90
57242;DHT22;43095;53.302;5.786;2022-09-03T21:51:55;16.90;99.90
57242;DHT22;43095;53.302;5.786;2022-09-03T21:54:42;16.90;99.90
57242;DHT22;43095;53.302;5.786;2022-09-03T21:57:35;16.90;99.90
57242;DHT22;43095;53.302;5.786;2022-09-03T22:00:27;16.80;99.90
57242;DHT22;43095;53.302;5.786;2022-09-03T22:03:16;16.80;99.90
57242;DHT22;43095;53.302;5.786;2022-09-03T22:06:10;16.80;99.90
57242;DHT22;43095;53.302;5.786;2022-09-03T22:09:06;16.80;99.90
57242;DHT22;43095;53.302;5.786;2022-09-03T22:12:45;16.80;99.90
57242;DHT22;43095;53.302;5.786;2022-09-03T22:15:37;16.90;99.90
57242;DHT22;43095;53.302;5.786;2022-09-03T22:18:29;17.00;99.60
57242;DHT22;43095;53.302;5.786;2022-09-03T22:21:38;17.00;99.30
57242;DHT22;43095;53.302;5.786;2022-09-03T22:30:19;16.90;99.90
57242;DHT22;43095;53.302;5.786;2022-09-03T22:33:23;16.80;99.90
57242;DHT22;43095;53.302;5.786;2022-09-03T22:36:13;16.70;99.90
57242;DHT22;43095;53.302;5.786;2022-09-03T22:45:11;16.40;99.90
57242;DHT22;43095;53.302;5.786;2022-09-03T22:48:23;16.30;99.90
57242;DHT22;43095;53.302;5.786;2022-09-03T22:51:11;16.30;99.90
57242;DHT22;43095;53.302;5.786;2022-09-03T22:57:02;16.10;99.90
57242;DHT22;43095;53.302;5.786;2022-09-03T23:00:03;16.10;99.90
57242;DHT22;43095;53.302;5.786;2022-09-03T23:03:03;16.10;99.90
57242;DHT22;43095;53.302;5.786;2022-09-03T23:06:04;16.10;99.90
57242;DHT22;43095;53.302;5.786;2022-09-03T23:09:05;16.00;99.90
57242;DHT22;43095;53.302;5.786;2022-09-03T23:11:58;16.00;99.90
57242;DHT22;43095;53.302;5.786;2022-09-03T23:14:48;15.90;99.90
57242;DHT22;43095;53.302;5.786;2022-09-03T23:17:40;15.90;99.90
57242;DHT22;43095;53.302;5.786;2022-09-03T23:20:28;15.90;99.90
57242;DHT22;43095;53.302;5.786;2022-09-03T23:23:25;15.80;99.90
57242;DHT22;43095;53.302;5.786;2022-09-03T23:27:05;15.80;99.90
57242;DHT22;43095;53.302;5.786;2022-09-03T23:32:18;15.70;99.90
57242;DHT22;43095;53.302;5.786;2022-09-03T23:35:14;15.70;99.90
57242;DHT22;43095;53.302;5.786;2022-09-03T23:40:49;15.70;99.90
57242;DHT22;43095;53.302;5.786;2022-09-03T23:43:56;15.60;99.90
57242;DHT22;43095;53.302;5.786;2022-09-03T23:47:17;15.60;99.90
57242;DHT22;43095;53.302;5.786;2022-09-03T23:59:51;15.50;99.90
